Time;durP1;ratioP1;P1;durP2;ratioP2;P2;SDS_P1;SDS_P2;PMS_P1;PMS_P2;Temp;Humidity;BMP_temperature;BMP_pressure;BME280_temperature;BME280_humidity;BME280_pressure;Samples;Min_cycle;Max_cycle;Signal;HPM_P1;HPM_P2
2023/06/03 00:01:11;;;;;;;10.03;9.60;;;10.50;58.10;;;;;;5060942;28;20548;-42
2023/06/03 00:03:39;;;;;;;10.13;9.70;;;10.40;58.40;;;;;;5060998;28;20188;-50
2023/06/03 00:06:05;;;;;;;10.80;10.10;;;10.40;59.50;;;;;;5060946;28;20424;-43
2023/06/03 00:08:30;;;;;;;10.23;9.77;;;10.30;59.40;;;;;;5060725;28;20898;-42
2023/06/03 00:10:56;;;;;;;9.97;9.57;;;10.20;59.70;;;;;;5060475;28;20437;-45
2023/06/03 00:13:22;;;;;;;9.47;9.17;;;10.20;61.00;;;;;;5060785;28;20609;-42
2023/06/03 00:15:48;;;;;;;10.37;9.87;;;10.10;62.10;;;;;;5059701;28;20274;-46
2023/06/03 00:18:15;;;;;;;10.30;9.80;;;10.00;63.10;;;;;;5060125;28;20424;-45
2023/06/03 00:20:41;;;;;;;9.90;9.50;;;10.00;63.70;;;;;;5058865;28;20181;-41
2023/06/03 00:23:07;;;;;;;9.70;9.30;;;9.80;66.00;;;;;;5060628;28;20901;-41
2023/06/03 00:25:33;;;;;;;10.30;9.80;;;9.80;66.40;;;;;;5061087;28;20426;-44
2023/06/03 00:27:58;;;;;;;10.10;9.63;;;9.70;67.80;;;;;;5060405;28;20193;-43
2023/06/03 00:30:24;;;;;;;10.70;10.00;;;9.60;69.10;;;;;;5060587;28;20461;-46
2023/06/03 00:32:50;;;;;;;10.30;9.90;;;9.60;70.10;;;;;;5060589;28;20219;-44
2023/06/03 00:35:15;;;;;;;10.77;10.27;;;9.50;71.60;;;;;;5059683;28;20219;-46
2023/06/03 00:37:41;;;;;;;10.17;9.70;;;9.40;73.00;;;;;;5042094;28;20221;-45
2023/06/03 00:40:07;;;;;;;10.80;10.30;;;9.40;74.00;;;;;;5060281;28;20189;-42
2023/06/03 00:42:33;;;;;;;10.40;9.90;;;9.30;76.60;;;;;;5060408;28;20219;-42
2023/06/03 00:44:58;;;;;;;10.60;10.10;;;9.30;78.30;;;;;;5060206;28;20501;-43
2023/06/03 00:47:24;;;;;;;10.67;10.17;;;9.20;80.00;;;;;;5059952;28;21002;-45
2023/06/03 00:49:50;;;;;;;10.50;9.90;;;9.10;82.10;;;;;;5060368;28;20562;-45
2023/06/03 00:52:17;;;;;;;10.47;9.97;;;9.10;84.90;;;;;;5058250;28;20217;-42
2023/06/03 00:54:44;;;;;;;10.40;9.90;;;9.00;87.80;;;;;;5063658;28;20196;-47
2023/06/03 00:57:10;;;;;;;10.40;9.90;;;9.00;90.20;;;;;;5064297;28;21159;-45
2023/06/03 00:59:35;;;;;;;9.80;9.40;;;8.90;91.10;;;;;;5063836;28;20509;-45
2023/06/03 01:02:01;;;;;;;10.13;9.73;;;8.80;91.70;;;;;;5064410;28;20734;-40
2023/06/03 01:04:28;;;;;;;10.23;9.73;;;8.80;92.10;;;;;;5063969;28;20241;-42
2023/06/03 01:07:56;;;;;;;9.37;8.97;;;8.80;92.90;;;;;;5064432;28;20243;-42
2023/06/03 01:10:48;;;;;;;10.07;9.67;;;8.80;93.10;;;;;;4964462;28;20448;-46
2023/06/03 01:13:40;;;;;;;10.20;9.70;;;8.70;93.90;;;;;;5064396;28;20418;-48
2023/06/03 01:16:08;;;;;;;10.10;9.70;;;8.60;94.80;;;;;;5063039;28;20465;-44
2023/06/03 01:18:36;;;;;;;9.60;9.20;;;8.60;95.50;;;;;;5063923;28;20950;-44
2023/06/03 01:21:02;;;;;;;9.40;9.00;;;8.50;96.00;;;;;;5063099;28;20435;-46
2023/06/03 01:23:33;;;;;;;9.90;9.20;;;8.50;96.50;;;;;;5062304;28;20521;-42
2023/06/03 01:26:00;;;;;;;10.07;9.50;;;8.40;97.20;;;;;;5062921;28;20483;-42
2023/06/03 01:28:28;;;;;;;9.90;9.43;;;8.40;97.80;;;;;;5063505;28;20450;-45
2023/06/03 01:30:55;;;;;;;9.30;8.90;;;8.30;98.50;;;;;;5063756;28;20514;-44
2023/06/03 01:33:22;;;;;;;10.03;9.37;;;8.30;98.90;;;;;;5063524;28;20438;-46
2023/06/03 01:35:49;;;;;;;10.00;9.50;;;8.20;99.30;;;;;;5063632;28;20469;-44
2023/06/03 01:38:16;;;;;;;9.90;9.40;;;8.20;99.90;;;;;;5063646;28;20437;-46
2023/06/03 01:40:42;;;;;;;10.00;9.50;;;8.20;99.90;;;;;;5062992;28;20917;-43
2023/06/03 01:43:08;;;;;;;9.50;9.10;;;8.10;99.90;;;;;;5063111;28;20514;-43
2023/06/03 01:45:34;;;;;;;9.97;9.47;;;8.10;99.90;;;;;;5063012;28;20437;-44
2023/06/03 01:48:00;;;;;;;10.40;9.80;;;8.10;99.90;;;;;;5063444;28;20433;-42
2023/06/03 01:50:26;;;;;;;9.73;9.23;;;8.00;99.90;;;;;;5060936;28;21175;-44
2023/06/03 01:52:51;;;;;;;9.90;9.40;;;8.00;99.90;;;;;;5062420;28;20446;-42
2023/06/03 01:55:17;;;;;;;9.87;9.40;;;8.00;99.90;;;;;;5062826;28;20206;-42
2023/06/03 01:57:43;;;;;;;9.53;9.13;;;7.90;99.90;;;;;;5062989;28;20183;-42
2023/06/03 02:00:09;;;;;;;9.93;9.50;;;7.90;99.90;;;;;;5063559;28;20553;-43
2023/06/03 02:02:35;;;;;;;9.87;9.40;;;7.90;99.90;;;;;;5062646;28;20182;-41
2023/06/03 02:05:01;;;;;;;10.10;9.70;;;7.80;99.90;;;;;;5061674;28;20431;-44
2023/06/03 02:07:29;;;;;;;9.10;8.70;;;7.80;99.90;;;;;;5063055;28;20430;-43
2023/06/03 02:09:55;;;;;;;9.93;9.33;;;7.80;99.90;;;;;;5062242;28;20189;-42
2023/06/03 02:12:21;;;;;;;9.80;9.30;;;7.70;99.90;;;;;;5062878;28;21511;-41
2023/06/03 02:14:47;;;;;;;9.93;9.43;;;7.70;99.90;;;;;;5061597;28;20204;-44
2023/06/03 02:17:13;;;;;;;10.20;9.57;;;7.70;99.90;;;;;;5062408;28;20192;-45
2023/06/03 02:19:39;;;;;;;9.70;9.20;;;7.60;99.90;;;;;;5061348;28;20654;-43
2023/06/03 02:22:05;;;;;;;10.37;9.87;;;7.60;99.90;;;;;;5062282;28;20428;-45
2023/06/03 02:24:32;;;;;;;10.33;9.83;;;7.60;99.90;;;;;;5062791;28;20236;-48
2023/06/03 02:27:01;;;;;;;10.90;10.40;;;7.50;99.90;;;;;;5062804;28;20512;-42
2023/06/03 02:29:28;;;;;;;10.27;9.80;;;7.40;99.90;;;;;;5062817;28;20430;-42
2023/06/03 02:31:55;;;;;;;10.27;9.70;;;7.40;99.90;;;;;;5061709;28;20435;-44
2023/06/03 02:34:21;;;;;;;10.37;9.93;;;7.40;99.90;;;;;;5062410;28;20820;-43
2023/06/03 02:36:47;;;;;;;10.37;9.87;;;7.30;99.90;;;;;;5062336;28;20502;-45
2023/06/03 02:39:14;;;;;;;10.60;10.10;;;7.20;99.90;;;;;;5043577;28;20503;-41
2023/06/03 02:41:41;;;;;;;10.90;10.33;;;7.20;99.90;;;;;;5062177;28;20435;-43
2023/06/03 02:44:07;;;;;;;10.87;10.37;;;7.20;99.90;;;;;;5060988;28;20435;-41
2023/06/03 02:46:33;;;;;;;11.10;10.50;;;7.10;99.90;;;;;;5061244;28;20449;-43
2023/06/03 02:49:03;;;;;;;10.23;9.70;;;7.10;99.90;;;;;;5062382;28;20231;-48
2023/06/03 02:51:29;;;;;;;10.30;9.80;;;7.10;99.90;;;;;;5060985;28;20463;-42
2023/06/03 02:53:56;;;;;;;11.10;10.50;;;7.10;99.90;;;;;;5062123;28;20813;-43
2023/06/03 02:56:22;;;;;;;10.20;9.70;;;7.00;99.90;;;;;;5061901;28;21339;-44
2023/06/03 02:58:48;;;;;;;10.50;10.00;;;7.00;99.90;;;;;;5044299;28;20454;-42
2023/06/03 03:01:14;;;;;;;10.83;10.10;;;6.90;99.90;;;;;;5062812;28;20477;-44
2023/06/03 03:03:40;;;;;;;10.40;9.83;;;6.90;99.90;;;;;;5061674;28;20431;-43
2023/06/03 03:06:06;;;;;;;10.80;10.30;;;6.80;99.90;;;;;;5062191;28;20518;-47
2023/06/03 03:08:35;;;;;;;9.77;9.27;;;6.80;99.90;;;;;;5043186;28;20975;-41
2023/06/03 03:11:01;;;;;;;10.10;9.70;;;6.80;99.90;;;;;;5062200;28;20423;-41
2023/06/03 03:13:27;;;;;;;10.80;10.30;;;6.70;99.90;;;;;;5060517;28;20442;-42
2023/06/03 03:15:52;;;;;;;10.70;10.20;;;6.70;99.90;;;;;;5061416;28;20259;-43
2023/06/03 03:18:18;;;;;;;10.63;10.13;;;6.70;99.90;;;;;;5061580;28;20189;-45
2023/06/03 03:20:44;;;;;;;10.20;9.70;;;6.70;99.90;;;;;;5061900;28;20181;-46
2023/06/03 03:23:12;;;;;;;10.47;9.97;;;6.60;99.90;;;;;;5060669;28;20231;-43
2023/06/03 03:25:38;;;;;;;10.65;10.05;;;6.60;99.90;;;;;;5060977;28;20489;-43
2023/06/03 03:28:04;;;;;;;10.20;9.70;;;6.60;99.90;;;;;;5060393;28;20260;-42
2023/06/03 03:30:29;;;;;;;10.20;9.70;;;6.60;99.90;;;;;;5061528;28;20540;-46
2023/06/03 03:32:58;;;;;;;10.30;9.80;;;6.60;99.90;;;;;;5061316;28;20416;-44
2023/06/03 03:35:25;;;;;;;10.48;9.98;;;6.50;99.90;;;;;;5060583;28;20213;-41
2023/06/03 03:38:02;;;;;;;10.80;10.20;;;6.50;99.90;;;;;;5061519;28;20585;-42
2023/06/03 03:40:29;;;;;;;10.45;9.85;;;6.50;99.90;;;;;;5060717;28;20193;-46
2023/06/03 03:42:56;;;;;;;10.07;9.52;;;6.50;99.90;;;;;;5061040;28;20265;-44
2023/06/03 03:45:35;;;;;;;10.27;9.85;;;6.50;99.90;;;;;;5060562;28;20189;-42
2023/06/03 03:48:03;;;;;;;10.35;9.85;;;6.60;99.90;;;;;;5060294;28;20219;-41
2023/06/03 03:50:37;;;;;;;10.13;9.63;;;6.60;99.90;;;;;;5060330;28;20643;-42
2023/06/03 03:53:08;;;;;;;10.30;9.80;;;6.60;99.90;;;;;;5060761;28;20421;-43
2023/06/03 03:55:42;;;;;;;10.30;9.80;;;6.60;99.90;;;;;;5043148;28;20466;-45
2023/06/03 03:58:30;;;;;;;9.60;9.10;;;6.60;99.90;;;;;;5060441;28;20795;-46
2023/06/03 04:00:59;;;;;;;10.40;9.80;;;6.60;99.90;;;;;;5060498;28;20406;-41
2023/06/03 04:03:25;;;;;;;10.38;9.65;;;6.60;99.90;;;;;;5060996;28;20477;-49
2023/06/03 04:05:52;;;;;;;10.07;9.60;;;6.60;99.90;;;;;;5060730;28;20534;-47
2023/06/03 04:08:43;;;;;;;10.10;9.60;;;6.70;99.90;;;;;;5060786;28;20193;-42
2023/06/03 04:11:17;;;;;;;10.10;9.60;;;6.70;99.90;;;;;;5060017;28;20231;-41
2023/06/03 04:13:43;;;;;;;10.30;9.70;;;6.80;99.90;;;;;;5059945;28;20781;-42
2023/06/03 04:16:11;;;;;;;10.03;9.47;;;6.70;99.90;;;;;;5042644;28;20474;-43
2023/06/03 04:18:41;;;;;;;10.98;10.20;;;6.70;99.90;;;;;;5059116;28;20549;-41
2023/06/03 04:21:12;;;;;;;10.17;9.67;;;6.80;99.90;;;;;;5060480;28;20173;-41
2023/06/03 04:23:38;;;;;;;10.20;9.60;;;6.80;99.90;;;;;;5060363;28;20459;-42
2023/06/03 04:26:04;;;;;;;9.77;9.17;;;6.80;99.90;;;;;;5060412;28;20430;-43
2023/06/03 04:28:30;;;;;;;10.27;9.50;;;6.80;99.90;;;;;;5059689;28;20264;-45
2023/06/03 04:30:55;;;;;;;10.30;9.70;;;6.80;99.90;;;;;;5060456;28;20185;-45
2023/06/03 04:33:21;;;;;;;9.90;9.40;;;6.90;99.90;;;;;;5059959;28;20736;-47
2023/06/03 04:35:46;;;;;;;10.50;9.77;;;6.90;99.90;;;;;;5060563;28;20612;-46
2023/06/03 04:38:12;;;;;;;9.90;9.40;;;7.00;99.90;;;;;;5060245;28;20223;-42
2023/06/03 04:40:37;;;;;;;10.57;9.97;;;7.00;99.90;;;;;;5060382;28;21032;-41
2023/06/03 04:43:03;;;;;;;10.30;9.80;;;7.10;99.90;;;;;;5041511;28;20936;-46
2023/06/03 04:45:31;;;;;;;10.13;9.73;;;7.20;99.90;;;;;;5059461;28;20208;-42
2023/06/03 04:48:01;;;;;;;10.43;9.93;;;7.20;99.90;;;;;;5059611;28;20196;-45
2023/06/03 04:50:28;;;;;;;10.63;10.03;;;7.30;99.90;;;;;;5060134;28;20601;-42
2023/06/03 04:52:56;;;;;;;10.40;9.80;;;7.40;99.90;;;;;;5060284;28;20415;-49
2023/06/03 04:55:22;;;;;;;9.60;9.10;;;7.50;99.90;;;;;;5060217;28;20456;-45
2023/06/03 04:57:50;;;;;;;10.10;9.60;;;7.50;99.90;;;;;;5060080;28;20458;-43
2023/06/03 05:00:19;;;;;;;10.07;9.57;;;7.60;99.90;;;;;;5058794;28;20534;-45
2023/06/03 05:02:54;;;;;;;10.07;9.67;;;7.70;99.90;;;;;;5059621;28;20573;-44
2023/06/03 05:05:22;;;;;;;10.47;9.97;;;7.80;99.90;;;;;;5059836;28;20411;-42
2023/06/03 05:07:47;;;;;;;10.50;10.00;;;7.80;99.90;;;;;;5057314;28;20447;-41
2023/06/03 05:10:13;;;;;;;10.93;10.23;;;7.90;99.90;;;;;;5060120;28;20917;-44
2023/06/03 05:12:40;;;;;;;10.27;9.77;;;8.00;99.90;;;;;;5056488;28;20182;-45
2023/06/03 05:15:07;;;;;;;10.17;9.67;;;8.00;99.90;;;;;;5060067;28;20185;-44
2023/06/03 05:17:33;;;;;;;10.30;9.80;;;8.10;99.90;;;;;;5059567;28;20432;-44
2023/06/03 05:19:58;;;;;;;10.40;9.90;;;8.20;99.90;;;;;;5059532;28;20446;-44
2023/06/03 05:22:24;;;;;;;10.83;10.23;;;8.30;99.90;;;;;;5042217;28;20196;-43
2023/06/03 05:24:50;;;;;;;10.47;9.80;;;8.30;99.90;;;;;;5057340;28;20230;-43
2023/06/03 05:27:15;;;;;;;10.60;10.00;;;8.40;99.90;;;;;;5057682;28;20872;-41
2023/06/03 05:29:41;;;;;;;10.20;9.70;;;8.40;99.90;;;;;;5057638;28;20276;-49
2023/06/03 05:32:07;;;;;;;10.40;9.90;;;8.50;99.90;;;;;;5056615;28;21286;-42
2023/06/03 05:34:32;;;;;;;10.60;9.80;;;8.60;99.90;;;;;;5057995;28;20288;-46
2023/06/03 05:36:58;;;;;;;9.83;9.37;;;8.60;99.90;;;;;;5060113;28;21075;-44
2023/06/03 05:39:24;;;;;;;9.67;9.20;;;8.70;99.90;;;;;;5060668;28;20277;-47
2023/06/03 05:41:50;;;;;;;10.53;9.93;;;8.80;99.90;;;;;;5063335;28;20187;-43
2023/06/03 05:44:16;;;;;;;10.70;10.20;;;8.90;99.90;;;;;;5063737;28;20417;-42
2023/06/03 05:46:41;;;;;;;10.63;10.13;;;9.00;99.90;;;;;;5062851;28;20760;-42
2023/06/03 05:49:07;;;;;;;9.77;9.37;;;9.10;99.90;;;;;;5063504;28;20247;-43
2023/06/03 05:51:33;;;;;;;10.27;9.80;;;9.20;99.90;;;;;;5062540;28;20197;-45
2023/06/03 05:53:58;;;;;;;10.30;9.80;;;9.30;99.90;;;;;;5063252;28;20632;-41
2023/06/03 05:56:24;;;;;;;10.27;9.67;;;9.40;99.90;;;;;;5063319;28;20248;-48
2023/06/03 05:58:50;;;;;;;9.83;9.40;;;9.50;99.90;;;;;;5063292;28;20179;-44
2023/06/03 06:01:15;;;;;;;9.90;9.50;;;9.60;99.90;;;;;;5062744;28;20431;-43
2023/06/03 06:03:41;;;;;;;10.93;10.20;;;9.70;99.90;;;;;;5062136;28;20188;-44
2023/06/03 06:06:07;;;;;;;10.43;9.87;;;9.90;99.90;;;;;;5062238;28;20257;-42
2023/06/03 06:08:33;;;;;;;10.50;10.00;;;10.00;99.90;;;;;;5062863;28;20901;-47
2023/06/03 06:10:58;;;;;;;10.97;10.37;;;10.10;99.90;;;;;;5063019;28;20707;-44
2023/06/03 06:13:24;;;;;;;9.87;9.33;;;10.30;99.90;;;;;;5062715;28;20192;-43
2023/06/03 06:16:03;;;;;;;10.80;10.00;;;10.40;99.90;;;;;;5062169;28;20240;-43
2023/06/03 06:18:31;;;;;;;10.60;10.00;;;10.50;99.90;;;;;;5060992;28;20177;-43
2023/06/03 06:20:58;;;;;;;10.87;10.20;;;10.60;99.90;;;;;;5062677;28;20416;-42
2023/06/03 06:23:24;;;;;;;10.10;9.60;;;10.80;99.90;;;;;;5054386;28;20482;-46
2023/06/03 06:25:54;;;;;;;10.10;9.60;;;10.90;99.70;;;;;;5060582;28;20943;-42
2023/06/03 06:28:26;;;;;;;9.90;9.30;;;10.90;98.10;;;;;;5057962;28;20231;-45
2023/06/03 06:31:02;;;;;;;10.77;10.17;;;11.10;97.60;;;;;;5060571;28;20550;-42
2023/06/03 06:33:29;;;;;;;9.60;9.10;;;11.20;97.70;;;;;;5060726;28;20541;-47
2023/06/03 06:35:54;;;;;;;10.33;9.83;;;11.30;96.00;;;;;;5060063;28;20482;-48
2023/06/03 06:38:20;;;;;;;10.83;10.23;;;11.50;95.80;;;;;;5061109;28;20438;-44
2023/06/03 06:40:46;;;;;;;10.23;9.73;;;11.60;94.90;;;;;;5061431;28;20189;-42
2023/06/03 06:43:25;;;;;;;10.20;9.70;;;11.80;94.10;;;;;;5059935;28;20185;-48
2023/06/03 06:45:54;;;;;;;10.30;9.70;;;11.90;93.10;;;;;;5058984;28;20203;-43
2023/06/03 06:48:20;;;;;;;9.40;9.00;;;12.10;92.60;;;;;;5061398;28;20431;-45
2023/06/03 06:50:55;;;;;;;10.33;9.73;;;12.30;92.10;;;;;;5060581;28;20889;-43
2023/06/03 06:53:23;;;;;;;10.27;9.67;;;12.50;90.80;;;;;;5060803;28;20964;-44
2023/06/03 06:55:54;;;;;;;10.87;10.37;;;12.70;90.80;;;;;;5060526;28;21084;-43
2023/06/03 06:58:21;;;;;;;10.10;9.30;;;12.80;90.00;;;;;;5060542;28;20445;-43
2023/06/03 07:00:48;;;;;;;10.13;9.63;;;13.00;85.50;;;;;;5062096;28;21157;-42
2023/06/03 07:03:19;;;;;;;10.33;9.83;;;13.20;78.90;;;;;;5061478;28;20419;-45
2023/06/03 07:05:52;;;;;;;10.40;9.87;;;13.40;75.10;;;;;;5061461;28;20415;-44
2023/06/03 07:08:18;;;;;;;10.40;9.90;;;13.60;71.10;;;;;;5061562;28;20427;-46
2023/06/03 07:10:44;;;;;;;10.27;9.77;;;13.80;69.30;;;;;;5060605;28;20455;-47
2023/06/03 07:13:10;;;;;;;10.33;9.93;;;14.00;65.40;;;;;;5059654;28;20455;-44
2023/06/03 07:15:39;;;;;;;10.23;9.70;;;14.20;62.70;;;;;;5059350;28;20483;-43
2023/06/03 07:18:05;;;;;;;9.80;9.40;;;14.40;61.80;;;;;;5059853;28;20635;-43
2023/06/03 07:20:46;;;;;;;10.10;9.50;;;14.50;57.60;;;;;;5060446;28;20435;-52
2023/06/03 07:23:13;;;;;;;9.50;9.10;;;14.60;56.80;;;;;;5059143;28;20570;-44
2023/06/03 07:25:50;;;;;;;9.10;8.60;;;14.80;55.40;;;;;;5058712;28;20576;-43
2023/06/03 07:28:26;;;;;;;9.97;9.47;;;14.90;55.40;;;;;;5060863;28;21277;-44
2023/06/03 07:30:52;;;;;;;9.60;9.20;;;15.00;53.40;;;;;;5059106;28;20433;-48
2023/06/03 07:33:28;;;;;;;9.40;8.90;;;15.10;53.90;;;;;;5058224;28;20439;-45
2023/06/03 07:35:59;;;;;;;10.20;9.70;;;15.30;51.70;;;;;;5056362;28;20487;-46
2023/06/03 07:38:56;;;;;;;8.97;8.57;;;15.30;51.70;;;;;;5060648;28;21142;-49
2023/06/03 07:41:45;;;;;;;9.20;8.80;;;15.50;52.00;;;;;;5051995;28;20545;-43
2023/06/03 07:44:15;;;;;;;9.37;8.97;;;15.60;49.90;;;;;;5059487;28;20803;-45
2023/06/03 07:46:44;;;;;;;9.00;8.50;;;15.70;49.60;;;;;;5057462;28;20500;-44
2023/06/03 07:49:15;;;;;;;9.20;8.80;;;15.70;48.70;;;;;;5038791;28;20437;-44
2023/06/03 07:51:44;;;;;;;9.50;9.00;;;15.80;48.90;;;;;;5059608;28;20423;-46
2023/06/03 07:54:10;;;;;;;10.07;9.57;;;15.90;49.20;;;;;;5060380;28;21104;-44
2023/06/03 07:56:36;;;;;;;10.10;9.70;;;16.00;46.60;;;;;;5055959;28;20517;-43
2023/06/03 07:59:03;;;;;;;9.57;9.17;;;16.10;46.40;;;;;;5046429;28;20435;-47
2023/06/03 08:01:29;;;;;;;9.40;8.90;;;16.20;46.60;;;;;;5058214;28;20201;-45
2023/06/03 08:03:55;;;;;;;10.07;9.67;;;16.20;44.90;;;;;;5057576;28;20585;-46
2023/06/03 08:06:29;;;;;;;10.60;10.10;;;16.40;45.20;;;;;;5059409;28;20207;-45
2023/06/03 08:08:59;;;;;;;10.50;10.00;;;16.50;45.70;;;;;;5039327;28;20451;-48
2023/06/03 08:11:25;;;;;;;10.60;10.00;;;16.70;44.20;;;;;;5060259;28;20435;-45
2023/06/03 08:13:55;;;;;;;9.70;9.30;;;16.80;43.40;;;;;;5060187;28;20419;-42
2023/06/03 08:16:21;;;;;;;9.80;9.40;;;16.90;41.50;;;;;;5056746;28;20491;-45
2023/06/03 08:18:52;;;;;;;9.50;9.00;;;17.10;42.00;;;;;;5054792;28;21202;-47
2023/06/03 08:21:18;;;;;;;9.80;9.40;;;17.10;40.80;;;;;;5041895;28;21121;-45
2023/06/03 08:23:44;;;;;;;9.93;9.53;;;17.20;41.60;;;;;;5058529;28;20467;-47
2023/06/03 08:26:11;;;;;;;9.60;8.90;;;17.30;41.60;;;;;;5059828;28;20420;-44
2023/06/03 08:28:40;;;;;;;9.13;8.73;;;17.40;38.70;;;;;;5056780;28;20542;-43
2023/06/03 08:31:06;;;;;;;9.57;9.17;;;17.50;34.80;;;;;;5058425;28;20427;-43
2023/06/03 08:33:31;;;;;;;10.07;9.67;;;17.50;33.50;;;;;;5056067;28;20964;-47
2023/06/03 08:35:57;;;;;;;9.40;8.90;;;17.60;34.20;;;;;;5059611;28;21531;-44
2023/06/03 08:38:23;;;;;;;9.90;9.43;;;17.80;35.90;;;;;;5059656;28;21298;-46
2023/06/03 08:40:50;;;;;;;9.50;9.10;;;17.90;36.20;;;;;;5059215;28;20245;-44
2023/06/03 08:43:17;;;;;;;9.77;9.37;;;18.10;36.60;;;;;;5059713;28;20192;-43
2023/06/03 08:45:59;;;;;;;9.80;9.10;;;18.30;36.90;;;;;;5059129;28;20419;-46
2023/06/03 08:48:46;;;;;;;9.87;9.33;;;18.50;35.10;;;;;;5058364;28;20439;-45
2023/06/03 08:51:15;;;;;;;9.77;9.37;;;18.80;36.10;;;;;;5058846;28;20472;-47
2023/06/03 08:53:51;;;;;;;9.53;9.13;;;19.00;37.20;;;;;;5059345;28;20419;-45
2023/06/03 08:56:19;;;;;;;8.77;8.37;;;19.20;33.50;;;;;;5059001;28;20535;-47
2023/06/03 08:59:05;;;;;;;8.80;8.47;;;19.40;34.40;;;;;;5059441;28;20473;-42
2023/06/03 09:01:35;;;;;;;8.50;8.20;;;19.60;33.50;;;;;;5058540;28;20423;-43
2023/06/03 09:04:03;;;;;;;8.90;8.50;;;19.90;33.90;;;;;;5039716;28;20929;-48
2023/06/03 09:06:28;;;;;;;8.43;8.13;;;20.10;32.30;;;;;;5059730;28;20420;-50
2023/06/03 09:08:55;;;;;;;8.67;8.37;;;20.40;31.60;;;;;;5059660;28;20419;-44
2023/06/03 09:11:22;;;;;;;8.57;8.17;;;20.70;30.50;;;;;;5059637;28;20218;-43
2023/06/03 09:13:49;;;;;;;8.97;8.57;;;21.00;29.60;;;;;;5060981;28;20448;-46
2023/06/03 09:16:16;;;;;;;8.90;8.60;;;21.30;28.50;;;;;;5063883;28;20459;-48
2023/06/03 09:18:43;;;;;;;8.77;8.47;;;21.60;28.80;;;;;;5063779;28;20419;-42
2023/06/03 09:21:12;;;;;;;8.30;7.90;;;22.00;28.00;;;;;;5063791;28;20502;-44
2023/06/03 09:23:39;;;;;;;9.10;8.70;;;22.30;27.40;;;;;;5063268;28;20482;-44
2023/06/03 09:26:06;;;;;;;8.60;8.30;;;22.60;28.20;;;;;;5064123;28;20419;-45
2023/06/03 09:28:35;;;;;;;8.63;8.23;;;23.10;25.70;;;;;;5063619;28;20407;-50
2023/06/03 09:31:02;;;;;;;9.50;9.10;;;23.30;24.00;;;;;;5063552;28;20987;-44
2023/06/03 09:33:28;;;;;;;8.70;8.40;;;23.90;23.70;;;;;;5063130;28;20461;-47
2023/06/03 09:36:12;;;;;;;9.50;9.10;;;24.50;23.80;;;;;;5063603;28;20459;-49
2023/06/03 09:38:54;;;;;;;8.60;8.30;;;25.10;21.60;;;;;;5063876;28;21014;-47
2023/06/03 09:41:21;;;;;;;8.90;8.50;;;25.20;20.50;;;;;;5063028;28;20486;-46
2023/06/03 09:44:05;;;;;;;9.20;8.70;;;25.30;21.50;;;;;;5063070;28;20892;-44
2023/06/03 09:46:33;;;;;;;8.60;8.30;;;25.60;21.00;;;;;;5062371;28;20418;-46
2023/06/03 09:49:11;;;;;;;8.63;8.23;;;25.90;20.40;;;;;;5063245;28;20530;-46
2023/06/03 09:51:44;;;;;;;9.27;8.87;;;26.30;20.00;;;;;;5063251;28;20407;-48
2023/06/03 09:54:59;;;;;;;9.10;8.70;;;26.60;19.50;;;;;;5045115;28;20435;-45
2023/06/03 09:57:25;;;;;;;9.20;8.80;;;27.20;18.90;;;;;;5044948;28;21024;-47
2023/06/03 10:00:12;;;;;;;9.67;9.27;;;27.70;17.80;;;;;;5063202;28;20425;-50
2023/06/03 10:02:43;;;;;;;9.40;9.00;;;28.00;16.60;;;;;;5062266;28;20196;-51
2023/06/03 10:05:41;;;;;;;8.50;8.20;;;28.40;15.60;;;;;;5062532;28;20431;-51
2023/06/03 10:08:07;;;;;;;9.90;9.50;;;28.80;15.80;;;;;;5018371;28;20481;-50
2023/06/03 10:10:34;;;;;;;8.10;7.80;;;29.20;15.50;;;;;;5062531;28;20415;-47
2023/06/03 10:13:19;;;;;;;8.20;7.90;;;29.20;16.00;;;;;;5063280;28;20443;-52
2023/06/03 10:15:46;;;;;;;9.00;8.70;;;29.20;16.00;;;;;;5062564;28;20504;-48
2023/06/03 10:18:11;;;;;;;9.47;9.13;;;29.50;15.40;;;;;;5062796;28;20407;-49
2023/06/03 10:20:39;;;;;;;8.83;8.50;;;29.70;15.40;;;;;;5043499;28;20440;-47
2023/06/03 10:23:06;;;;;;;9.13;8.73;;;30.10;14.90;;;;;;5062245;28;20224;-51
2023/06/03 10:25:37;;;;;;;10.27;9.83;;;30.20;14.70;;;;;;5061118;28;20419;-51
2023/06/03 10:28:03;;;;;;;9.23;8.77;;;30.20;14.60;;;;;;5061683;28;20795;-50
2023/06/03 10:30:30;;;;;;;8.13;7.73;;;30.30;14.20;;;;;;5061183;28;20416;-49
2023/06/03 10:33:03;;;;;;;8.53;8.23;;;30.30;14.50;;;;;;5062798;28;20500;-50
2023/06/03 10:35:33;;;;;;;9.70;9.30;;;30.50;14.40;;;;;;5062664;28;20469;-48
2023/06/03 10:38:01;;;;;;;9.23;8.83;;;30.30;14.20;;;;;;5062596;28;20468;-52
2023/06/03 10:40:28;;;;;;;8.90;8.40;;;30.10;14.00;;;;;;5061132;28;20424;-53
2023/06/03 10:42:55;;;;;;;8.70;8.40;;;29.80;13.80;;;;;;5062463;28;20414;-52
2023/06/03 10:45:22;;;;;;;9.10;8.80;;;30.20;14.10;;;;;;5044175;28;20507;-49
2023/06/03 10:47:50;;;;;;;9.30;8.60;;;30.10;14.00;;;;;;5062045;28;20447;-48
2023/06/03 10:50:35;;;;;;;9.30;9.00;;;30.50;14.00;;;;;;5061500;28;20550;-52
2023/06/03 10:53:39;;;;;;;8.47;8.17;;;30.60;14.40;;;;;;5062201;28;20435;-50
2023/06/03 10:56:31;;;;;;;7.40;7.17;;;30.60;13.40;;;;;;5061167;28;20566;-53
2023/06/03 10:59:05;;;;;;;9.43;9.03;;;31.10;13.30;;;;;;5061622;28;20420;-52
2023/06/03 11:01:58;;;;;;;9.40;9.07;;;30.80;12.60;;;;;;5061904;28;20502;-50
2023/06/03 11:04:26;;;;;;;9.27;8.97;;;31.20;13.30;;;;;;5062072;28;20416;-48
2023/06/03 11:06:52;;;;;;;9.97;9.47;;;31.50;12.10;;;;;;5061939;28;20439;-52
2023/06/03 11:09:38;;;;;;;9.00;8.60;;;31.50;12.00;;;;;;5061787;28;20752;-49
2023/06/03 11:12:09;;;;;;;9.70;9.30;;;31.70;12.60;;;;;;5061723;28;20431;-50
2023/06/03 11:14:42;;;;;;;8.30;8.00;;;32.40;12.10;;;;;;5061841;28;20464;-47
2023/06/03 11:17:10;;;;;;;9.40;9.00;;;32.30;11.90;;;;;;5060392;28;20603;-43
2023/06/03 11:19:44;;;;;;;9.40;9.00;;;32.20;11.90;;;;;;5061223;28;20423;-47
2023/06/03 11:22:12;;;;;;;9.93;9.53;;;32.30;11.80;;;;;;5061551;28;20457;-46
2023/06/03 11:24:38;;;;;;;8.40;8.10;;;32.50;11.40;;;;;;5061277;28;20546;-45
2023/06/03 11:27:09;;;;;;;8.40;8.10;;;32.30;11.60;;;;;;5061879;28;20527;-45
2023/06/03 11:29:59;;;;;;;9.77;9.33;;;31.90;11.10;;;;;;5061258;28;20658;-47
2023/06/03 11:32:28;;;;;;;9.27;8.97;;;32.10;11.80;;;;;;5051609;28;20442;-47
2023/06/03 11:35:00;;;;;;;8.00;7.70;;;32.50;11.50;;;;;;5060070;28;20433;-45
2023/06/03 11:37:41;;;;;;;8.57;8.17;;;32.70;11.10;;;;;;5060945;28;20454;-47
2023/06/03 11:40:18;;;;;;;9.27;8.87;;;32.50;10.70;;;;;;5061538;28;20457;-49
2023/06/03 11:42:47;;;;;;;8.50;8.10;;;32.70;10.80;;;;;;5061294;28;20431;-44
2023/06/03 11:45:18;;;;;;;9.10;8.70;;;32.30;9.90;;;;;;5060507;28;20431;-50
2023/06/03 11:47:55;;;;;;;9.30;9.00;;;32.50;10.90;;;;;;5060842;28;20542;-44
2023/06/03 11:50:26;;;;;;;9.03;8.63;;;32.60;11.20;;;;;;5060584;28;20423;-45
2023/06/03 11:52:51;;;;;;;9.13;8.83;;;33.10;10.30;;;;;;5061037;28;20426;-48
2023/06/03 11:55:35;;;;;;;9.17;8.87;;;33.00;10.20;;;;;;5061141;28;21195;-44
2023/06/03 11:58:10;;;;;;;8.20;7.90;;;33.30;10.00;;;;;;5061074;28;21362;-44
2023/06/03 12:00:37;;;;;;;8.67;8.37;;;33.40;9.50;;;;;;5060611;28;20940;-47
2023/06/03 12:03:03;;;;;;;8.67;8.37;;;33.20;10.20;;;;;;5061096;28;21046;-50
2023/06/03 12:05:29;;;;;;;8.60;8.20;;;33.30;8.70;;;;;;5061277;28;20543;-46
2023/06/03 12:07:56;;;;;;;8.43;8.13;;;33.40;9.80;;;;;;5060822;28;20536;-48
2023/06/03 12:10:22;;;;;;;8.70;8.40;;;33.60;9.50;;;;;;5061101;28;20536;-45
2023/06/03 12:12:51;;;;;;;8.10;7.80;;;33.80;9.10;;;;;;5060451;28;20419;-49
2023/06/03 12:15:18;;;;;;;9.53;9.13;;;33.40;9.40;;;;;;5060146;28;20310;-44
2023/06/03 12:17:44;;;;;;;9.50;9.10;;;33.40;9.60;;;;;;5060399;28;21569;-48
2023/06/03 12:20:11;;;;;;;9.33;8.90;;;33.00;9.50;;;;;;5060487;28;20419;-46
2023/06/03 12:22:37;;;;;;;9.00;8.70;;;33.00;9.50;;;;;;5060530;28;20296;-46
2023/06/03 12:25:03;;;;;;;9.13;8.83;;;33.00;9.80;;;;;;5060346;28;20574;-45
2023/06/03 12:27:29;;;;;;;9.20;8.90;;;33.20;8.90;;;;;;5060745;28;20212;-45
2023/06/03 12:29:58;;;;;;;7.83;7.53;;;33.10;9.50;;;;;;5060292;28;20196;-49
2023/06/03 12:32:29;;;;;;;9.47;9.17;;;33.20;9.40;;;;;;5060322;28;20416;-46
2023/06/03 12:34:55;;;;;;;8.93;8.60;;;33.20;10.10;;;;;;5060386;28;20407;-47
2023/06/03 12:37:27;;;;;;;9.40;9.00;;;33.20;8.70;;;;;;5060574;28;20463;-44
2023/06/03 12:39:52;;;;;;;9.13;8.83;;;33.30;9.20;;;;;;5060400;28;20468;-47
2023/06/03 12:42:21;;;;;;;8.50;8.20;;;33.40;8.40;;;;;;5060644;28;20803;-47
2023/06/03 12:44:53;;;;;;;9.27;8.93;;;33.50;8.40;;;;;;5060694;28;20611;-51
2023/06/03 12:47:20;;;;;;;8.13;7.83;;;33.40;8.40;;;;;;5060276;28;20493;-46
2023/06/03 12:50:08;;;;;;;9.30;9.00;;;33.30;8.40;;;;;;5059647;28;20416;-49
2023/06/03 12:52:36;;;;;;;7.93;7.63;;;33.30;8.40;;;;;;5059754;28;20811;-45
2023/06/03 12:55:11;;;;;;;9.13;8.83;;;33.20;7.90;;;;;;5060063;28;20411;-49
2023/06/03 12:57:38;;;;;;;8.20;7.90;;;33.40;8.40;;;;;;5060104;28;20728;-47